Time;durP1;ratioP1;P1;durP2;ratioP2;P2;SDS_P1;SDS_P2;PMS_P1;PMS_P2;Temp;Humidity;BMP_temperature;BMP_pressure;BME280_temperature;BME280_humidity;BME280_pressure;Samples;Min_cycle;Max_cycle;Signal;HPM_P1;HPM_P2
2022/06/19 00:00:41;;;;;;;17.80;2.72;;;18.20;58.80;;;;;;9183169;19;20011;-67
2022/06/19 00:03:49;;;;;;;16.17;3.25;;;18.20;58.80;;;;;;9179692;19;20383;-67
2022/06/19 00:06:56;;;;;;;11.88;2.38;;;18.20;58.80;;;;;;9181824;19;20018;-67
2022/06/19 00:10:02;;;;;;;12.48;2.53;;;18.10;58.80;;;;;;9184381;19;20459;-67
2022/06/19 00:13:09;;;;;;;16.00;3.53;;;18.10;58.80;;;;;;9179981;19;20370;-67
2022/06/19 00:16:14;;;;;;;19.58;3.08;;;18.10;58.90;;;;;;9181946;19;20011;-67
2022/06/19 00:19:20;;;;;;;19.83;2.92;;;18.00;58.70;;;;;;9182212;19;20015;-67
2022/06/19 00:22:25;;;;;;;20.02;3.22;;;17.90;58.80;;;;;;9182725;19;20026;-67
2022/06/19 00:25:30;;;;;;;20.30;3.05;;;17.90;58.90;;;;;;9180304;19;20487;-67
2022/06/19 00:28:39;;;;;;;19.17;2.40;;;17.80;58.90;;;;;;9181599;19;20049;-67
2022/06/19 00:31:45;;;;;;;16.27;2.40;;;17.80;59.00;;;;;;9181432;19;20018;-67
2022/06/19 00:34:50;;;;;;;17.52;2.38;;;17.70;58.90;;;;;;9183729;19;20019;-67
2022/06/19 00:37:55;;;;;;;14.32;2.47;;;17.70;59.10;;;;;;9181449;19;20029;-67
2022/06/19 00:41:01;;;;;;;12.38;2.33;;;17.70;59.10;;;;;;9181254;19;20022;-67
2022/06/19 00:44:10;;;;;;;13.02;2.25;;;17.60;59.10;;;;;;9181220;19;20025;-67
2022/06/19 00:47:20;;;;;;;14.93;2.58;;;17.50;59.10;;;;;;9182111;19;20024;-67
2022/06/19 00:50:30;;;;;;;15.93;2.22;;;17.40;59.20;;;;;;9182596;19;20022;-67
2022/06/19 00:53:40;;;;;;;20.88;3.53;;;17.30;59.20;;;;;;9179232;19;20498;-67
2022/06/19 00:56:45;;;;;;;16.10;2.80;;;17.20;59.30;;;;;;9181903;19;20022;-67
2022/06/19 00:59:57;;;;;;;19.30;2.80;;;17.20;59.40;;;;;;9180428;19;20040;-67
2022/06/19 01:03:08;;;;;;;20.60;3.03;;;17.10;59.50;;;;;;9176537;19;20007;-67
2022/06/19 01:06:14;;;;;;;11.07;2.72;;;17.00;59.50;;;;;;9180847;19;20494;-67
2022/06/19 01:09:20;;;;;;;17.10;3.33;;;17.00;59.60;;;;;;9179607;19;20054;-67
2022/06/19 01:12:27;;;;;;;17.17;2.92;;;16.90;59.50;;;;;;9179323;19;20464;-67
2022/06/19 01:15:35;;;;;;;17.02;2.72;;;16.80;59.60;;;;;;9181487;19;20006;-67
2022/06/19 01:18:41;;;;;;;10.85;2.33;;;16.80;59.70;;;;;;9181357;19;20018;-67
2022/06/19 01:21:54;;;;;;;18.48;3.08;;;16.70;59.80;;;;;;9180067;19;20010;-67
2022/06/19 01:25:08;;;;;;;17.60;2.53;;;16.60;59.80;;;;;;9181787;19;20014;-67
2022/06/19 01:31:39;;;;;;;19.23;2.30;;;16.60;59.80;;;;;;9181158;19;20329;-67
2022/06/19 01:34:46;;;;;;;15.80;2.85;;;16.60;59.70;;;;;;9181154;19;20019;-67
2022/06/19 01:37:53;;;;;;;12.70;1.95;;;16.60;59.60;;;;;;9180752;19;20018;-67
2022/06/19 01:41:06;;;;;;;20.58;2.33;;;16.50;59.40;;;;;;9179025;19;20018;-67
2022/06/19 01:44:11;;;;;;;11.37;2.17;;;16.50;59.30;;;;;;9179793;19;20011;-66
2022/06/19 01:47:17;;;;;;;11.63;1.80;;;16.50;59.10;;;;;;9179744;19;20999;-66
2022/06/19 01:50:26;;;;;;;12.35;2.40;;;16.50;59.00;;;;;;9179324;19;20494;-66
2022/06/19 01:53:35;;;;;;;14.40;2.08;;;16.50;58.90;;;;;;9178112;19;20466;-66
2022/06/19 01:56:43;;;;;;;12.57;2.08;;;16.50;58.80;;;;;;9185786;19;20346;-67
2022/06/19 01:59:49;;;;;;;15.70;2.30;;;16.50;58.80;;;;;;9189615;19;20349;-67
2022/06/19 02:03:01;;;;;;;16.00;2.47;;;16.50;58.70;;;;;;9185264;19;20015;-66
2022/06/19 02:06:07;;;;;;;15.68;2.15;;;16.50;58.70;;;;;;9188694;19;20017;-66
2022/06/19 02:09:13;;;;;;;17.95;3.20;;;16.50;58.70;;;;;;9185469;19;20010;-67
2022/06/19 02:12:22;;;;;;;14.73;2.58;;;16.50;58.80;;;;;;9186797;19;20029;-67
2022/06/19 02:15:27;;;;;;;19.30;2.67;;;16.50;59.00;;;;;;9187293;19;20025;-67
2022/06/19 02:18:37;;;;;;;16.88;2.55;;;16.50;59.10;;;;;;9189660;19;20011;-66
2022/06/19 02:21:45;;;;;;;21.08;3.53;;;16.40;59.20;;;;;;9189459;19;20018;-68
2022/06/19 02:24:50;;;;;;;21.08;3.25;;;16.40;59.30;;;;;;9187043;19;20011;-67
2022/06/19 02:27:58;;;;;;;16.77;3.38;;;16.40;59.40;;;;;;9187399;19;20026;-66
2022/06/19 02:31:04;;;;;;;15.85;2.88;;;16.40;59.50;;;;;;9186970;19;20017;-67
2022/06/19 02:34:17;;;;;;;16.48;2.97;;;16.40;59.60;;;;;;9183973;19;20015;-67
2022/06/19 02:37:25;;;;;;;17.23;2.90;;;16.40;59.80;;;;;;9186272;19;20026;-67
2022/06/19 02:40:39;;;;;;;18.38;3.20;;;16.40;59.80;;;;;;9184244;19;20018;-67
2022/06/19 02:43:47;;;;;;;;;;;16.40;60.00;;;;;;9187312;19;20774;-67
2022/06/19 02:46:52;;;;;;;24.63;3.40;;;16.40;59.80;;;;;;9186235;19;19915;-67
2022/06/19 02:49:57;;;;;;;17.42;2.75;;;16.30;59.80;;;;;;9186013;19;20471;-67
2022/06/19 02:53:02;;;;;;;16.98;3.10;;;16.30;60.00;;;;;;9184566;19;20022;-67
2022/06/19 02:56:07;;;;;;;18.63;2.65;;;16.30;60.10;;;;;;9185665;19;20053;-66
2022/06/19 02:59:14;;;;;;;22.30;3.20;;;16.30;60.20;;;;;;9186092;19;20025;-67
2022/06/19 03:02:19;;;;;;;13.60;2.53;;;16.20;60.40;;;;;;9187034;19;20010;-67
2022/06/19 03:05:27;;;;;;;13.10;2.53;;;16.20;60.40;;;;;;9185564;19;20011;-67
2022/06/19 03:08:32;;;;;;;24.00;3.35;;;16.20;60.60;;;;;;9182868;19;20023;-66
2022/06/19 03:11:37;;;;;;;16.48;2.42;;;16.20;60.60;;;;;;9185235;19;20495;-67
2022/06/19 03:14:44;;;;;;;11.80;2.58;;;16.20;60.70;;;;;;9183859;19;20022;-67
2022/06/19 03:17:49;;;;;;;19.25;2.47;;;16.20;60.90;;;;;;9185029;19;20013;-67
2022/06/19 03:20:55;;;;;;;18.27;2.67;;;16.20;60.80;;;;;;9185343;19;20340;-67
2022/06/19 03:24:00;;;;;;;18.83;2.30;;;16.20;60.90;;;;;;9184344;19;20035;-67
2022/06/19 03:27:05;;;;;;;20.40;2.65;;;16.20;60.80;;;;;;9185912;19;20019;-67
2022/06/19 03:30:15;;;;;;;14.00;2.20;;;16.20;60.70;;;;;;9185157;19;20479;-68
2022/06/19 03:33:20;;;;;;;8.43;1.63;;;16.20;60.60;;;;;;9182903;19;20022;-67
2022/06/19 03:36:25;;;;;;;15.02;2.60;;;16.20;60.40;;;;;;9180620;19;20026;-67
2022/06/19 03:39:30;;;;;;;12.13;2.08;;;16.20;60.40;;;;;;9181737;19;20011;-68
2022/06/19 03:42:35;;;;;;;18.15;3.00;;;16.20;60.30;;;;;;9186327;19;20011;-67
2022/06/19 03:45:43;;;;;;;17.48;2.92;;;16.20;60.40;;;;;;9185649;19;20010;-67
2022/06/19 03:48:51;;;;;;;19.60;2.78;;;16.20;60.40;;;;;;9186108;19;20013;-67
2022/06/19 03:51:56;;;;;;;18.10;3.03;;;16.20;60.40;;;;;;9185352;19;20076;-67
2022/06/19 03:55:01;;;;;;;12.50;1.90;;;16.20;60.40;;;;;;9183470;19;20015;-67
2022/06/19 03:58:06;;;;;;;16.20;2.58;;;16.20;60.30;;;;;;9184785;19;20360;-67
2022/06/19 04:01:14;;;;;;;15.13;2.10;;;16.20;60.40;;;;;;9184736;19;20025;-67
2022/06/19 04:04:19;;;;;;;19.40;2.97;;;16.20;60.40;;;;;;9178881;19;20518;-67
2022/06/19 04:07:24;;;;;;;16.17;2.63;;;16.20;60.50;;;;;;9181893;19;20025;-67
2022/06/19 04:10:29;;;;;;;14.05;2.05;;;16.20;60.60;;;;;;9183523;19;20018;-68
2022/06/19 04:13:35;;;;;;;13.93;2.30;;;16.20;60.50;;;;;;9182365;19;20352;-67
2022/06/19 04:16:42;;;;;;;11.85;1.88;;;16.10;60.50;;;;;;9182997;19;20006;-67
2022/06/19 04:19:48;;;;;;;15.55;2.45;;;16.20;60.60;;;;;;9180409;19;20015;-67
2022/06/19 04:22:53;;;;;;;13.50;2.15;;;16.10;60.50;;;;;;9182281;19;20014;-68
2022/06/19 04:25:58;;;;;;;15.02;2.22;;;16.10;60.60;;;;;;9182392;19;20022;-67
2022/06/19 04:29:04;;;;;;;19.90;2.60;;;16.20;60.70;;;;;;9183954;19;20011;-67
2022/06/19 04:32:11;;;;;;;18.52;2.90;;;16.20;60.70;;;;;;9183171;19;20022;-67
2022/06/19 04:35:17;;;;;;;13.13;2.35;;;16.20;60.80;;;;;;9180077;19;20018;-67
2022/06/19 04:38:22;;;;;;;14.15;2.53;;;16.20;60.90;;;;;;9183644;19;20026;-67
2022/06/19 04:41:31;;;;;;;21.42;3.75;;;16.20;61.00;;;;;;9183199;19;20014;-67
2022/06/19 04:44:36;;;;;;;15.68;2.85;;;16.20;61.20;;;;;;9181982;19;20015;-67
2022/06/19 04:47:44;;;;;;;20.38;3.28;;;16.30;61.40;;;;;;9180951;19;20014;-67
2022/06/19 04:50:49;;;;;;;20.50;2.60;;;16.30;61.40;;;;;;9181934;19;20380;-67
2022/06/19 04:53:55;;;;;;;18.30;2.80;;;16.30;61.50;;;;;;9180406;19;20483;-67
2022/06/19 04:57:00;;;;;;;15.25;2.33;;;16.20;61.50;;;;;;9182384;19;20367;-67
2022/06/19 05:00:07;;;;;;;14.10;2.47;;;16.20;61.60;;;;;;9181479;19;20054;-67
2022/06/19 05:03:15;;;;;;;15.98;2.58;;;16.20;61.60;;;;;;9177295;19;20025;-67
2022/06/19 05:06:20;;;;;;;8.15;1.80;;;16.20;61.60;;;;;;9179863;19;20026;-67
2022/06/19 05:09:25;;;;;;;18.92;3.15;;;16.20;61.60;;;;;;9178196;19;20353;-67
2022/06/19 05:12:30;;;;;;;13.35;2.15;;;16.20;61.50;;;;;;9180407;19;20021;-67
2022/06/19 05:15:35;;;;;;;16.05;2.47;;;16.20;61.50;;;;;;9178851;19;20018;-67
2022/06/19 05:18:44;;;;;;;19.13;3.17;;;16.20;61.60;;;;;;9181702;19;20018;-68
2022/06/19 05:21:55;;;;;;;15.48;2.28;;;16.20;61.60;;;;;;9180139;19;20037;-67
2022/06/19 05:25:00;;;;;;;12.50;2.58;;;16.20;61.50;;;;;;9182156;19;20018;-67
2022/06/19 05:28:07;;;;;;;16.83;2.60;;;16.30;61.60;;;;;;9181473;19;20018;-67
2022/06/19 05:31:12;;;;;;;16.48;2.63;;;16.30;61.60;;;;;;9189277;19;20007;-68
2022/06/19 05:34:20;;;;;;;15.48;2.80;;;16.30;61.50;;;;;;9190750;19;20022;-67
2022/06/19 05:37:25;;;;;;;14.43;2.00;;;16.40;61.50;;;;;;9189515;19;20021;-67
2022/06/19 05:40:30;;;;;;;19.63;2.58;;;16.40;61.50;;;;;;9190553;19;20019;-67
2022/06/19 05:43:37;;;;;;;17.20;1.95;;;16.50;61.50;;;;;;9190256;19;20477;-67
2022/06/19 05:46:42;;;;;;;12.30;1.90;;;16.50;61.50;;;;;;9188803;19;20007;-66
2022/06/19 05:49:50;;;;;;;16.95;2.95;;;16.50;61.40;;;;;;9188031;19;20490;-67
2022/06/19 05:52:55;;;;;;;11.38;2.20;;;16.50;61.50;;;;;;9189060;19;20080;-66
2022/06/19 05:56:00;;;;;;;25.88;2.25;;;16.60;61.50;;;;;;9185628;19;20007;-66
2022/06/19 05:59:05;;;;;;;15.50;2.22;;;16.60;61.50;;;;;;9188851;19;20018;-66
2022/06/19 06:02:11;;;;;;;13.27;2.83;;;16.70;61.50;;;;;;9186198;19;20352;-66
2022/06/19 06:05:19;;;;;;;17.83;2.20;;;16.80;61.50;;;;;;9183000;19;20025;-66
2022/06/19 06:08:24;;;;;;;11.75;2.22;;;16.90;61.50;;;;;;9181691;19;20023;-66
2022/06/19 06:11:30;;;;;;;14.63;2.50;;;17.00;61.50;;;;;;9183561;19;20367;-66
2022/06/19 06:14:35;;;;;;;11.05;2.28;;;17.20;61.50;;;;;;9185464;19;20371;-66
2022/06/19 06:17:40;;;;;;;11.75;2.10;;;17.30;61.50;;;;;;9188179;19;20340;-67
2022/06/19 06:20:56;;;;;;;16.15;2.50;;;17.50;61.40;;;;;;9188948;19;20017;-66
2022/06/19 06:24:01;;;;;;;20.58;3.70;;;17.60;61.20;;;;;;9182792;19;20519;-66
2022/06/19 06:27:08;;;;;;;10.73;2.08;;;17.80;61.00;;;;;;9180928;19;20018;-67
2022/06/19 06:30:14;;;;;;;13.90;2.35;;;18.00;60.80;;;;;;9183276;19;20014;-67
2022/06/19 06:33:19;;;;;;;8.13;2.08;;;18.10;60.60;;;;;;9184926;19;20023;-68
2022/06/19 06:36:27;;;;;;;13.38;2.17;;;18.30;60.50;;;;;;9179130;19;20018;-66
2022/06/19 06:39:32;;;;;;;11.20;1.67;;;18.40;60.30;;;;;;9181811;19;20042;-66
2022/06/19 06:42:38;;;;;;;9.77;2.17;;;18.60;60.00;;;;;;9181174;19;20019;-66
2022/06/19 06:45:43;;;;;;;10.10;1.90;;;18.70;59.80;;;;;;9182243;19;20030;-66
2022/06/19 06:48:49;;;;;;;9.65;2.15;;;18.90;59.70;;;;;;9181434;19;20010;-66
2022/06/19 06:51:57;;;;;;;19.73;2.33;;;19.00;59.40;;;;;;9182360;19;20024;-67
2022/06/19 06:55:02;;;;;;;11.02;1.83;;;19.20;59.40;;;;;;9179272;19;20014;-67
2022/06/19 06:58:07;;;;;;;15.10;1.92;;;19.40;59.30;;;;;;9181476;19;20050;-67
2022/06/19 07:01:15;;;;;;;11.85;2.33;;;19.50;59.10;;;;;;9180877;19;20496;-67
2022/06/19 07:04:20;;;;;;;10.02;2.17;;;19.70;59.00;;;;;;9175660;19;20030;-67
2022/06/19 07:07:28;;;;;;;9.77;1.88;;;19.90;58.90;;;;;;9178685;19;20021;-67
2022/06/19 07:10:33;;;;;;;15.93;2.65;;;20.00;58.60;;;;;;9182602;19;20661;-67
2022/06/19 07:13:40;;;;;;;11.07;2.28;;;20.10;58.50;;;;;;9181616;19;20022;-67
2022/06/19 07:16:46;;;;;;;12.77;2.55;;;20.20;58.90;;;;;;9183630;19;20014;-67
2022/06/19 07:19:51;;;;;;;8.48;1.65;;;20.20;58.10;;;;;;9181384;19;20022;-67
2022/06/19 07:22:58;;;;;;;10.15;1.95;;;20.30;58.00;;;;;;9178278;19;20062;-67
2022/06/19 07:26:03;;;;;;;14.05;2.13;;;20.30;57.80;;;;;;9179897;19;20389;-67
2022/06/19 07:29:08;;;;;;;12.52;2.10;;;20.40;57.70;;;;;;9182283;19;20022;-67
2022/06/19 07:32:15;;;;;;;9.00;1.92;;;20.40;57.60;;;;;;9181888;19;20025;-67
2022/06/19 07:35:20;;;;;;;8.82;1.70;;;20.50;57.40;;;;;;9178850;19;20018;-67
2022/06/19 07:38:28;;;;;;;8.73;1.75;;;20.50;57.30;;;;;;9180541;19;20021;-67
2022/06/19 07:41:33;;;;;;;10.63;1.88;;;20.50;57.20;;;;;;9182198;19;20010;-67
2022/06/19 07:44:38;;;;;;;10.95;1.60;;;20.50;57.20;;;;;;9179944;19;20025;-67
2022/06/19 07:51:01;;;;;;;7.35;1.92;;;20.50;57.40;;;;;;9179019;19;20018;-67
2022/06/19 07:54:09;;;;;;;10.90;2.05;;;20.40;57.60;;;;;;9177711;19;20632;-67
2022/06/19 07:57:14;;;;;;;14.70;1.73;;;20.40;57.70;;;;;;9178146;19;20348;-67
2022/06/19 08:00:23;;;;;;;8.40;2.10;;;20.30;57.80;;;;;;9180350;19;20029;-67
2022/06/19 08:03:28;;;;;;;13.40;1.95;;;20.20;58.00;;;;;;9176119;19;20121;-67
2022/06/19 08:06:37;;;;;;;13.93;1.77;;;20.10;58.20;;;;;;9175878;19;20528;-67
2022/06/19 08:09:45;;;;;;;12.32;1.80;;;20.00;58.40;;;;;;9178412;19;20011;-66
2022/06/19 08:12:52;;;;;;;9.95;1.90;;;19.90;58.60;;;;;;9176778;19;20022;-67
2022/06/19 08:15:59;;;;;;;10.82;1.95;;;19.80;58.70;;;;;;9178120;19;20026;-67
2022/06/19 08:19:05;;;;;;;14.90;2.53;;;19.70;59.00;;;;;;9174836;19;20010;-67
2022/06/19 08:22:10;;;;;;;15.75;2.42;;;19.50;59.20;;;;;;9176129;19;20518;-68
2022/06/19 08:25:19;;;;;;;12.68;2.28;;;19.40;59.40;;;;;;9179283;19;20011;-68
2022/06/19 08:28:27;;;;;;;10.25;2.38;;;19.30;59.90;;;;;;9177146;19;20025;-66
2022/06/19 08:31:33;;;;;;;12.35;2.25;;;19.20;59.90;;;;;;9172528;19;20018;-67
2022/06/19 08:34:38;;;;;;;16.00;2.58;;;19.10;60.20;;;;;;9174330;19;20973;-67
2022/06/19 08:37:47;;;;;;;17.20;2.38;;;19.00;60.40;;;;;;9171145;19;20361;-66
2022/06/19 08:41:19;;;;;;;15.88;2.25;;;18.90;60.60;;;;;;9172331;19;20029;-66
2022/06/19 08:44:39;;;;;;;17.48;2.17;;;18.80;61.20;;;;;;9173108;19;20018;-67
2022/06/19 08:48:02;;;;;;;9.13;1.55;;;18.70;61.30;;;;;;9169573;19;20036;-66
2022/06/19 08:51:18;;;;;;;17.17;2.10;;;18.70;61.60;;;;;;9169880;19;20022;-66
2022/06/19 08:54:37;;;;;;;11.65;2.30;;;18.60;61.70;;;;;;9169971;19;20023;-66
2022/06/19 08:58:04;;;;;;;19.75;3.08;;;18.40;61.80;;;;;;9161617;19;20010;-66
2022/06/19 09:01:18;;;;;;;16.27;2.67;;;18.40;62.10;;;;;;9166668;19;20025;-67
2022/06/19 09:08:29;;;;;;;15.05;2.55;;;18.20;62.10;;;;;;9168558;19;20028;-66
2022/06/19 09:11:48;;;;;;;16.65;3.05;;;18.10;62.30;;;;;;9177839;19;20007;-67
2022/06/19 09:15:07;;;;;;;11.60;2.35;;;17.90;62.40;;;;;;9173047;19;20021;-67
2022/06/19 09:18:20;;;;;;;11.68;2.08;;;17.80;62.70;;;;;;9176088;19;20015;-66
2022/06/19 09:21:35;;;;;;;19.77;2.67;;;17.80;62.90;;;;;;9179029;19;20402;-65
2022/06/19 09:24:57;;;;;;;11.00;2.50;;;17.70;63.20;;;;;;9175015;19;20006;-68
2022/06/19 09:28:08;;;;;;;12.98;2.13;;;17.60;63.30;;;;;;9175548;19;20031;-66
2022/06/19 09:31:23;;;;;;;11.27;2.03;;;17.60;63.40;;;;;;9177262;19;20391;-67
2022/06/19 09:34:38;;;;;;;12.15;2.15;;;17.60;63.50;;;;;;9174399;19;20481;-67
2022/06/19 09:37:49;;;;;;;8.23;1.88;;;17.50;63.60;;;;;;9171832;19;20011;-67
2022/06/19 09:40:58;;;;;;;9.07;2.30;;;17.50;63.60;;;;;;9174410;19;20019;-68
2022/06/19 09:44:09;;;;;;;12.85;2.10;;;17.50;63.50;;;;;;9170409;19;20070;-67
2022/06/19 09:47:22;;;;;;;10.13;2.13;;;17.50;63.50;;;;;;9167404;19;20110;-66
2022/06/19 09:50:35;;;;;;;17.67;2.20;;;17.40;63.60;;;;;;9167942;19;21208;-68
2022/06/19 09:53:45;;;;;;;14.77;2.83;;;17.40;63.50;;;;;;9168420;19;20581;-66
2022/06/19 09:57:11;;;;;;;15.63;2.42;;;17.30;63.50;;;;;;9165492;19;20019;-64
2022/06/19 10:00:21;;;;;;;10.20;1.77;;;17.30;63.70;;;;;;9158377;19;20430;-65
2022/06/19 10:04:03;;;;;;;14.50;2.72;;;17.20;63.90;;;;;;9160439;19;20117;-65
2022/06/19 10:07:14;;;;;;;18.75;2.50;;;17.20;64.50;;;;;;9164157;19;20019;-65
2022/06/19 10:10:25;;;;;;;13.18;2.22;;;17.20;64.50;;;;;;9160081;19;20056;-66
2022/06/19 10:13:37;;;;;;;9.70;2.60;;;17.20;64.70;;;;;;9165517;19;20773;-66
2022/06/19 10:16:48;;;;;;;14.20;3.00;;;17.20;65.00;;;;;;9164221;19;20026;-66
2022/06/19 10:20:13;;;;;;;9.30;1.77;;;17.30;65.10;;;;;;9177410;19;20018;-67
2022/06/19 10:23:21;;;;;;;;;;;17.40;65.30;;;;;;9177270;19;20017;-67
2022/06/19 10:26:38;;;;;;;16.55;2.25;;;17.50;64.70;;;;;;9177487;19;19926;-67
2022/06/19 10:29:54;;;;;;;10.63;1.77;;;17.50;64.80;;;;;;9177006;19;20508;-66
2022/06/19 10:33:17;;;;;;;14.02;2.33;;;17.60;64.90;;;;;;9178142;19;20011;-67
2022/06/19 10:36:33;;;;;;;10.18;1.90;;;17.70;65.20;;;;;;9174741;19;20018;-64
2022/06/19 10:40:02;;;;;;;9.32;2.42;;;17.80;65.10;;;;;;9176382;19;20022;-65
2022/06/19 10:43:20;;;;;;;18.88;2.17;;;18.00;65.20;;;;;;9175799;19;20029;-65
2022/06/19 10:46:27;;;;;;;14.77;2.65;;;18.10;65.40;;;;;;9172146;19;20041;-67
2022/06/19 10:49:40;;;;;;;10.60;2.17;;;18.30;65.30;;;;;;9172028;19;20018;-67
2022/06/19 10:52:57;;;;;;;10.57;2.05;;;18.50;65.30;;;;;;9175561;19;20044;-67
2022/06/19 10:56:10;;;;;;;9.82;2.15;;;18.70;65.20;;;;;;9180069;19;20022;-65
2022/06/19 10:59:17;;;;;;;8.63;1.88;;;18.90;64.90;;;;;;9177070;19;20380;-67
2022/06/19 11:05:55;;;;;;;17.98;1.92;;;19.30;64.60;;;;;;9177215;19;20010;-68
2022/06/19 11:09:07;;;;;;;5.25;1.75;;;19.40;64.20;;;;;;9172921;19;20394;-69
2022/06/19 11:12:20;;;;;;;9.88;2.13;;;19.60;63.90;;;;;;9179863;19;20026;-68
2022/06/19 11:15:35;;;;;;;16.93;2.13;;;19.80;63.60;;;;;;9180886;19;20786;-68
2022/06/19 11:18:48;;;;;;;8.23;1.55;;;19.90;63.40;;;;;;9175657;19;20484;-68
2022/06/19 11:21:53;;;;;;;13.70;2.30;;;20.00;63.10;;;;;;9179095;19;20018;-69
2022/06/19 11:25:35;;;;;;;14.25;2.22;;;20.10;63.00;;;;;;9178125;19;20018;-66
2022/06/19 11:28:53;;;;;;;13.38;1.95;;;20.10;62.90;;;;;;9180031;19;20022;-68
2022/06/19 11:32:12;;;;;;;12.15;1.83;;;20.30;62.70;;;;;;9180587;19;20021;-69
2022/06/19 11:35:17;;;;;;;12.98;3.00;;;20.40;62.40;;;;;;9177421;19;20014;-70
2022/06/19 11:38:42;;;;;;;11.73;1.92;;;20.40;62.20;;;;;;9175246;19;20765;-68
2022/06/19 11:41:49;;;;;;;12.98;2.17;;;20.50;62.00;;;;;;9178902;19;20345;-68
2022/06/19 11:44:56;;;;;;;10.00;1.70;;;20.60;62.00;;;;;;9179697;19;20486;-69
2022/06/19 11:48:05;;;;;;;11.85;2.33;;;20.50;61.80;;;;;;9179034;19;20018;-70
2022/06/19 11:51:19;;;;;;;12.10;2.08;;;20.50;61.70;;;;;;9177976;19;20006;-69
2022/06/19 11:54:38;;;;;;;12.43;2.03;;;20.50;61.60;;;;;;9177670;19;20015;-69
2022/06/19 11:57:50;;;;;;;14.07;1.75;;;20.60;61.70;;;;;;9175586;19;20364;-69
2022/06/19 12:01:12;;;;;;;13.88;2.33;;;20.50;61.50;;;;;;9175688;19;20070;-66
2022/06/19 12:04:28;;;;;;;7.68;1.80;;;20.60;61.50;;;;;;9169857;19;20022;-66
2022/06/19 12:07:36;;;;;;;12.10;2.15;;;20.50;61.30;;;;;;9171468;19;20029;-65
2022/06/19 12:10:43;;;;;;;10.68;2.03;;;20.50;61.30;;;;;;9170056;19;20018;-66
2022/06/19 12:13:55;;;;;;;16.75;2.13;;;20.50;61.30;;;;;;9170108;19;20124;-68
2022/06/19 12:17:37;;;;;;;10.80;1.67;;;20.50;61.40;;;;;;9172704;19;20042;-68
2022/06/19 12:20:42;;;;;;;11.88;2.22;;;20.60;61.50;;;;;;9176320;19;20018;-67
2022/06/19 12:23:57;;;;;;;8.90;2.10;;;20.60;61.50;;;;;;9178452;19;20034;-70
2022/06/19 12:27:04;;;;;;;15.30;2.95;;;20.70;61.30;;;;;;9174066;19;20014;-67
2022/06/19 12:30:19;;;;;;;12.38;2.15;;;20.70;61.20;;;;;;9171889;19;20059;-70
2022/06/19 12:33:29;;;;;;;11.60;2.10;;;20.80;61.20;;;;;;9174360;19;20022;-68
2022/06/19 12:36:37;;;;;;;15.20;2.50;;;20.80;61.10;;;;;;9175785;19;20022;-68
2022/06/19 12:39:44;;;;;;;17.95;2.17;;;20.90;60.90;;;;;;9174335;19;20014;-68
2022/06/19 12:42:59;;;;;;;12.45;2.00;;;21.00;60.90;;;;;;9177201;19;20479;-67
2022/06/19 12:46:16;;;;;;;8.65;1.35;;;21.00;60.90;;;;;;9177209;19;20018;-67
2022/06/19 12:49:53;;;;;;;6.13;1.67;;;21.10;60.60;;;;;;9177426;19;20026;-69
2022/06/19 12:53:10;;;;;;;9.35;2.35;;;21.20;60.40;;;;;;9182298;19;20029;-68
2022/06/19 12:56:25;;;;;;;9.18;1.60;;;21.30;60.30;;;;;;9180746;19;20023;-68
2022/06/19 13:00:01;;;;;;;8.57;1.88;;;21.30;60.00;;;;;;9177951;19;20032;-67
2022/06/19 13:03:38;;;;;;;8.23;1.60;;;21.40;60.00;;;;;;9177708;19;20029;-69
2022/06/19 13:07:05;;;;;;;10.88;2.25;;;21.50;60.00;;;;;;9181827;19;21135;-70
2022/06/19 13:10:45;;;;;;;14.07;2.50;;;21.50;59.90;;;;;;9180232;19;20022;-69
2022/06/19 13:14:23;;;;;;;8.70;1.73;;;21.50;60.50;;;;;;9182451;19;20021;-68
2022/06/19 13:17:34;;;;;;;13.65;3.38;;;21.50;59.80;;;;;;9179773;19;20011;-69
2022/06/19 13:20:48;;;;;;;12.35;2.58;;;21.50;59.80;;;;;;9180023;19;20525;-69
2022/06/19 13:24:08;;;;;;;13.68;2.58;;;21.50;59.70;;;;;;9180342;19;20368;-66
2022/06/19 13:27:30;;;;;;;12.70;2.38;;;21.50;59.70;;;;;;9178654;19;20033;-67
2022/06/19 13:30:45;;;;;;;10.88;2.45;;;21.50;59.60;;;;;;9179767;19;20480;-68
2022/06/19 13:34:16;;;;;;;14.75;2.60;;;21.40;59.60;;;;;;9179164;19;20351;-67
2022/06/19 13:37:39;;;;;;;7.53;2.63;;;21.40;59.50;;;;;;9179761;19;20018;-68
2022/06/19 13:40:50;;;;;;;17.95;2.65;;;21.40;59.60;;;;;;9173634;19;20018;-68
2022/06/19 13:44:05;;;;;;;12.32;2.60;;;21.30;59.50;;;;;;9180049;19;20038;-67
2022/06/19 13:47:15;;;;;;;14.98;2.97;;;21.30;59.50;;;;;;9180723;19;20014;-66
2022/06/19 13:50:27;;;;;;;11.82;2.50;;;21.30;59.60;;;;;;9183651;19;20044;-68
2022/06/19 13:53:41;;;;;;;18.60;2.53;;;21.20;59.60;;;;;;9189917;19;20026;-68
2022/06/19 13:56:52;;;;;;;7.72;1.73;;;21.30;59.60;;;;;;9184975;19;20022;-68
2022/06/19 14:00:17;;;;;;;12.30;1.90;;;21.20;59.60;;;;;;9181983;19;20356;-67
2022/06/19 14:08:05;;;;;;;14.00;2.33;;;21.30;59.50;;;;;;9187042;19;20486;-69
2022/06/19 14:11:16;;;;;;;12.23;3.08;;;21.30;59.50;;;;;;9188603;19;20472;-69
2022/06/19 14:14:43;;;;;;;12.75;2.97;;;21.30;59.50;;;;;;9188343;19;20018;-69
2022/06/19 14:17:56;;;;;;;12.90;2.47;;;21.30;59.50;;;;;;9188761;19;20011;-69
2022/06/19 14:21:21;;;;;;;10.50;2.28;;;21.30;59.40;;;;;;9187009;19;20467;-67
2022/06/19 14:24:45;;;;;;;7.45;1.38;;;21.20;59.30;;;;;;9187344;19;20017;-68
2022/06/19 14:28:02;;;;;;;7.80;1.75;;;21.30;59.30;;;;;;9186496;19;20022;-68
2022/06/19 14:31:18;;;;;;;5.85;1.27;;;21.20;59.30;;;;;;9187924;19;20010;-66
2022/06/19 14:34:49;;;;;;;9.60;1.83;;;21.20;59.40;;;;;;9187042;19;20024;-66
2022/06/19 14:38:13;;;;;;;14.73;2.05;;;21.20;59.20;;;;;;9186521;19;20030;-68
2022/06/19 14:41:32;;;;;;;9.25;2.00;;;21.10;59.20;;;;;;9183777;19;20017;-68
2022/06/19 14:44:48;;;;;;;7.07;1.92;;;21.10;59.20;;;;;;9188129;19;20020;-68
2022/06/19 14:48:06;;;;;;;9.43;1.73;;;21.00;59.20;;;;;;9186940;19;20010;-68
2022/06/19 14:51:27;;;;;;;12.00;2.08;;;21.00;59.30;;;;;;9185135;19;20022;-67
2022/06/19 14:54:54;;;;;;;8.10;1.83;;;20.90;59.20;;;;;;9188077;19;20339;-68
2022/06/19 14:58:03;;;;;;;11.40;1.80;;;20.90;59.40;;;;;;9180483;19;20026;-68
2022/06/19 15:01:22;;;;;;;10.75;1.75;;;20.90;59.50;;;;;;9180817;19;20019;-67
2022/06/19 15:04:31;;;;;;;11.68;1.63;;;20.90;59.80;;;;;;9182296;19;20018;-67
2022/06/19 15:07:42;;;;;;;5.30;1.27;;;20.80;59.80;;;;;;9182883;19;20006;-68
2022/06/19 15:10:56;;;;;;;6.20;1.33;;;20.80;59.90;;;;;;9178611;19;20022;-67
2022/06/19 15:14:15;;;;;;;8.73;1.55;;;20.80;60.10;;;;;;9181022;19;20846;-68
2022/06/19 15:17:32;;;;;;;8.25;2.20;;;20.70;60.10;;;;;;9182093;19;20368;-66
2022/06/19 15:20:44;;;;;;;8.45;1.83;;;20.60;60.20;;;;;;9174366;19;20018;-67
2022/06/19 15:23:49;;;;;;;7.32;1.52;;;20.50;60.30;;;;;;9177897;19;20029;-67
2022/06/19 15:26:54;;;;;;;6.55;1.60;;;20.50;60.50;;;;;;9176360;19;20029;-68
2022/06/19 15:30:39;;;;;;;10.35;1.55;;;20.40;60.70;;;;;;9175196;19;20018;-68
2022/06/19 15:33:48;;;;;;;9.63;1.77;;;20.40;61.00;;;;;;9175046;19;20014;-67
2022/06/19 15:37:15;;;;;;;15.63;2.35;;;20.30;61.10;;;;;;9174031;19;20021;-68
2022/06/19 15:40:26;;;;;;;6.70;1.48;;;20.20;61.40;;;;;;9171939;19;20018;-67
2022/06/19 15:43:51;;;;;;;5.25;1.30;;;20.10;61.50;;;;;;9176650;19;21775;-67
2022/06/19 15:47:15;;;;;;;7.13;1.30;;;20.10;61.60;;;;;;9177087;19;20082;-68
2022/06/19 15:50:32;;;;;;;5.53;1.80;;;20.00;62.00;;;;;;9174260;19;20018;-68
2022/06/19 15:53:53;;;;;;;4.68;1.40;;;19.90;62.10;;;;;;9173382;19;20018;-68
2022/06/19 15:56:59;;;;;;;7.55;1.92;;;19.90;62.40;;;;;;9174827;19;20018;-67
2022/06/19 16:00:11;;;;;;;7.15;2.13;;;19.80;62.20;;;;;;9169340;19;20026;-69
2022/06/19 16:03:20;;;;;;;5.55;1.48;;;19.80;62.30;;;;;;9169575;19;20022;-68
2022/06/19 16:06:30;;;;;;;3.92;1.17;;;19.70;62.40;;;;;;9171798;19;20025;-71
2022/06/19 16:09:49;;;;;;;7.22;1.40;;;19.60;62.40;;;;;;9171345;19;20018;-71
2022/06/19 16:13:10;;;;;;;5.47;1.40;;;19.50;63.10;;;;;;9170812;19;20027;-70
2022/06/19 16:16:21;;;;;;;5.03;1.27;;;19.50;62.70;;;;;;9171306;19;20019;-70
2022/06/19 16:19:29;;;;;;;6.10;1.42;;;19.40;62.60;;;;;;9169741;19;20022;-69
2022/06/19 16:22:36;;;;;;;6.63;1.50;;;19.40;62.70;;;;;;9170384;19;20017;-68
2022/06/19 16:25:44;;;;;;;7.10;1.38;;;19.30;62.70;;;;;;9172790;19;20014;-68
2022/06/19 16:28:49;;;;;;;7.30;1.17;;;19.20;62.70;;;;;;9170258;19;20023;-69
2022/06/19 16:31:56;;;;;;;9.50;1.65;;;19.20;63.50;;;;;;9170163;19;20308;-70
2022/06/19 16:45:15;;;;;;;4.78;1.48;;;18.90;63.40;;;;;;9166832;19;20018;-68
2022/06/19 16:48:23;;;;;;;5.85;1.20;;;18.90;63.60;;;;;;9169001;19;20018;-67
2022/06/19 16:51:29;;;;;;;6.38;1.30;;;18.80;63.60;;;;;;9169304;19;20029;-68
2022/06/19 16:54:59;;;;;;;7.90;1.52;;;18.80;63.70;;;;;;9170261;19;20011;-68